Absarokee, MT (59001)

7:15 AM MDT on July 24, 2016 (GMT -0600)
North Davidson Ave., Absarokee | | Change Station

Elev 4042 ft 45.52 °N, 109.44 °W | Updated 6 seconds ago

Partly Cloudy
Partly Cloudy
51.1 °F
Feels Like 51.1 °F
N
1.0
Wind Variable Wind from SW
Gusts 3.0 mph

Today
High -- | Low -- °F
--% Chance of Precip.
Yesterday
High -- | Low -- °F
Precip. -- in
Pressure 30.03 in
Visibility 10.0 miles
Clouds Few 15000 ft
Dew Point 44 °F
Humidity 77%
Rainfall 0.00 in
Snow Depth Not available.
5:53 AM 8:54 PM
Waning Gibbous, 76% visible
METAR KBIL 241253Z 23010KT 10SM FEW150 15/08 A3012 RMK AO2 SLP168 T01500083
Pressure 30.03 in
Visibility 10.0 miles
Clouds Few 15000 ft
Dew Point 44 °F
Humidity 77%
Rainfall 0.00 in
Snow Depth Not available.
5:53 AM 8:54 PM
Waning Gibbous, 76% visible
METAR KBIL 241253Z 23010KT 10SM FEW150 15/08 A3012 RMK AO2 SLP168 T01500083

10-Day Weather Forecast

Almanac

Astronomy

Jul. 24, 2016 Rise Set
Actual Time
Civil Twilight
Nautical Twilight
Astronomical Twilight
Moon
Length of Visible Light
Length of Day
Tomorrow will be .
, % of the Moon is Illuminated

Today's Extremes

State Highs State Lows

Community

WunderPhotos

Upload Photos

1,927,055 photos uploaded!

WunderBlog® & News

Nearby

Air Quality

  Air Quality AQ Index Pollutant
Not available.

Snow Depth

Station Depth Elevation

Earthquake Activity

City Distance Mag. Time & Date
Minimum magnitude displayed is 2.5.

Coastal Water Temperatures

Place Temperature

Stations

Nearby Weather Stations

Station Location Temp. Windchill Dew Point Humidity Wind Precip. Elev Updated Type
                   

Watches & Warnings

There are currently no watches in effect.